createdAt,value
2018-01-28T00:01:45.988Z,102586.92
2018-01-28T00:04:12.176Z,102583.97
2018-01-28T00:06:38.359Z,102580.11
2018-01-28T00:09:04.720Z,102576.67
2018-01-28T00:11:30.901Z,102578.03
2018-01-28T00:13:57.120Z,102573.30
2018-01-28T00:16:23.358Z,102587.37
2018-01-28T00:18:49.543Z,102592.28
2018-01-28T00:21:15.816Z,102593.69
2018-01-28T00:23:42.073Z,102590.30
2018-01-28T00:26:08.317Z,102595.16
2018-01-28T00:28:34.492Z,102591.73
2018-01-28T00:31:00.702Z,102580.88
2018-01-28T00:33:26.937Z,102584.50
2018-01-28T00:35:53.116Z,102583.22
2018-01-28T00:38:19.334Z,102578.52
2018-01-28T00:40:45.525Z,102585.98
2018-01-28T00:43:11.752Z,102581.28
2018-01-28T00:45:37.936Z,102582.25
2018-01-28T00:48:04.079Z,102580.17
2018-01-28T00:50:30.265Z,102581.13
2018-01-28T00:52:56.497Z,102585.11
2018-01-28T00:55:22.644Z,102576.91
2018-01-28T00:57:48.837Z,102587.48
2018-01-28T01:00:15.083Z,102583.66
2018-01-28T01:02:41.291Z,102582.86
2018-01-28T01:05:07.445Z,102577.70
2018-01-28T01:07:33.672Z,102583.55
2018-01-28T01:09:59.911Z,102581.48
2018-01-28T01:12:26.089Z,102584.14
2018-01-28T01:14:52.293Z,102592.64
2018-01-28T01:17:18.453Z,102596.22
2018-01-28T01:19:44.660Z,102606.32
2018-01-28T01:22:10.861Z,102597.19
2018-01-28T01:24:37.128Z,102600.36
2018-01-28T01:27:03.265Z,102598.73
2018-01-28T01:29:29.432Z,102597.45
2018-01-28T01:31:55.657Z,102609.33
2018-01-28T01:34:21.854Z,102606.32
2018-01-28T01:36:48.016Z,102615.09
2018-01-28T01:39:14.263Z,102615.63
2018-01-28T01:41:40.494Z,102619.61
2018-01-28T01:44:06.684Z,102633.22
2018-01-28T01:46:32.847Z,102635.91
2018-01-28T01:48:59.044Z,102634.30
2018-01-28T01:51:25.209Z,102639.63
2018-01-28T01:53:51.447Z,102643.96
2018-01-28T01:56:17.614Z,102643.08
2018-01-28T01:58:43.774Z,102652.34
2018-01-28T02:01:09.992Z,102646.63
2018-01-28T02:03:36.225Z,102650.20
2018-01-28T02:06:02.429Z,102646.80
2018-01-28T02:08:28.656Z,102648.16
2018-01-28T02:10:54.788Z,102647.34
2018-01-28T02:13:21.013Z,102652.33
2018-01-28T02:15:47.211Z,102654.69
2018-01-28T02:18:13.418Z,102645.61
2018-01-28T02:20:39.629Z,102640.03
2018-01-28T02:23:05.860Z,102635.77
2018-01-28T02:25:31.988Z,102638.55
2018-01-28T02:27:58.139Z,102640.42
2018-01-28T02:30:24.301Z,102641.50
2018-01-28T02:32:50.499Z,102650.41
2018-01-28T02:35:16.692Z,102658.81
2018-01-28T02:37:42.959Z,102658.86
2018-01-28T02:40:09.123Z,102663.32
2018-01-28T02:42:35.337Z,102664.28
2018-01-28T02:45:01.531Z,102659.95
2018-01-28T02:47:28.808Z,102661.33
2018-01-28T02:49:54.969Z,102660.92
2018-01-28T02:52:21.213Z,102659.73
2018-01-28T02:54:47.415Z,102653.63
2018-01-28T02:57:13.564Z,102660.75
2018-01-28T02:59:39.718Z,102653.74
2018-01-28T03:02:05.900Z,102655.47
2018-01-28T03:04:32.128Z,102658.58
2018-01-28T03:06:58.280Z,102650.32
2018-01-28T03:09:24.446Z,102648.25
2018-01-28T03:11:50.670Z,102649.98
2018-01-28T03:14:16.954Z,102647.37
2018-01-28T03:16:43.083Z,102640.41
2018-01-28T03:19:09.265Z,102632.99
2018-01-28T03:21:35.406Z,102643.13
2018-01-28T03:24:01.664Z,102638.81
2018-01-28T03:26:27.847Z,102634.42
2018-01-28T03:28:54.033Z,102639.28
2018-01-28T03:31:20.246Z,102642.34
2018-01-28T03:33:46.554Z,102645.86
2018-01-28T03:36:12.781Z,102645.48
2018-01-28T03:38:39.007Z,102653.52
2018-01-28T03:41:05.280Z,102650.02
2018-01-28T03:43:31.492Z,102650.48
2018-01-28T03:45:57.668Z,102649.23
2018-01-28T03:48:23.820Z,102650.61
2018-01-28T03:50:50.005Z,102655.55
2018-01-28T03:53:16.229Z,102657.23
2018-01-28T03:55:42.397Z,102654.63
2018-01-28T03:58:08.580Z,102663.50
2018-01-28T04:00:34.811Z,102652.14
2018-01-28T04:03:00.965Z,102659.09
2018-01-28T04:05:27.223Z,102661.71
2018-01-28T04:07:53.355Z,102666.11
2018-01-28T04:10:19.524Z,102675.91
2018-01-28T04:12:45.756Z,102683.87
2018-01-28T04:15:11.996Z,102687.35
2018-01-28T04:17:38.166Z,102688.17
2018-01-28T04:20:04.376Z,102694.39
2018-01-28T04:22:30.608Z,102693.93
2018-01-28T04:24:56.838Z,102691.75
2018-01-28T04:27:23.062Z,102686.55
2018-01-28T04:29:49.214Z,102680.37
2018-01-28T04:32:15.414Z,102677.27
2018-01-28T04:34:41.641Z,102681.18
2018-01-28T04:37:07.813Z,102686.86
2018-01-28T04:39:33.991Z,102695.66
2018-01-28T04:42:00.229Z,102703.97
2018-01-28T04:44:26.494Z,102702.66
2018-01-28T04:46:52.651Z,102704.71
2018-01-28T04:49:18.785Z,102704.67
2018-01-28T04:51:44.953Z,102715.55
2018-01-28T04:54:11.170Z,102716.92
2018-01-28T04:56:37.330Z,102721.22
2018-01-28T04:59:03.569Z,102720.38
2018-01-28T05:01:30.717Z,102725.55
2018-01-28T05:03:56.949Z,102717.61
2018-01-28T05:06:23.149Z,102706.06
2018-01-28T05:08:49.374Z,102715.59
2018-01-28T05:11:15.628Z,102708.50
2018-01-28T05:13:41.882Z,102711.02
2018-01-28T05:16:08.097Z,102716.22
2018-01-28T05:18:34.342Z,102726.30
2018-01-28T05:21:00.523Z,102737.19
2018-01-28T05:23:26.840Z,102741.45
2018-01-28T05:25:53.512Z,102738.78
2018-01-28T05:28:19.790Z,102744.42
2018-01-28T05:30:45.968Z,102737.75
2018-01-28T05:33:12.826Z,102745.56
2018-01-28T05:35:39.091Z,102760.89
2018-01-28T05:38:05.271Z,102762.19
2018-01-28T05:40:31.427Z,102767.81
2018-01-28T05:42:57.669Z,102772.13
2018-01-28T05:45:23.949Z,102773.09
2018-01-28T05:47:50.105Z,102785.25
2018-01-28T05:50:16.307Z,102785.58
2018-01-28T05:52:42.531Z,102781.54
2018-01-28T05:55:08.735Z,102781.54
2018-01-28T05:57:34.966Z,102773.17
2018-01-28T06:00:01.262Z,102773.55
2018-01-28T06:02:27.492Z,102777.88
2018-01-28T06:04:53.748Z,102787.39
2018-01-28T06:07:19.963Z,102789.91
2018-01-28T06:09:46.174Z,102797.44
2018-01-28T06:12:12.378Z,102801.80
2018-01-28T06:14:38.611Z,102805.72
2018-01-28T06:17:04.813Z,102807.11
2018-01-28T06:19:31.048Z,102812.64
2018-01-28T06:21:57.300Z,102818.59
2018-01-28T06:24:23.561Z,102823.27
2018-01-28T06:26:49.811Z,102821.41
2018-01-28T06:29:16.032Z,102822.27
2018-01-28T06:31:42.292Z,102809.02
2018-01-28T06:34:08.567Z,102815.12
2018-01-28T06:36:34.850Z,102821.20
2018-01-28T06:39:01.082Z,102825.20
2018-01-28T06:41:27.447Z,102824.77
2018-01-28T06:43:53.746Z,102822.94
2018-01-28T06:46:19.927Z,102828.67
2018-01-28T06:48:46.119Z,102832.53
2018-01-28T06:51:12.367Z,102843.08
2018-01-28T06:53:38.570Z,102850.17
2018-01-28T06:56:04.901Z,102851.46
2018-01-28T06:58:31.227Z,102852.30
2018-01-28T07:00:57.467Z,102851.53
2018-01-28T07:03:23.654Z,102853.20
2018-01-28T07:05:49.914Z,102851.03
2018-01-28T07:08:16.110Z,102850.98
2018-01-28T07:10:42.270Z,102848.31
2018-01-28T07:13:08.508Z,102851.70
2018-01-28T07:15:34.760Z,102855.67
2018-01-28T07:18:00.925Z,102853.80
2018-01-28T07:20:27.103Z,102863.03
2018-01-28T07:22:53.350Z,102866.59
2018-01-28T07:25:19.595Z,102884.01
2018-01-28T07:27:45.843Z,102885.80
2018-01-28T07:30:12.145Z,102893.97
2018-01-28T07:32:38.379Z,102892.25
2018-01-28T07:35:04.741Z,102890.51
2018-01-28T07:37:30.959Z,102888.73
2018-01-28T07:39:57.151Z,102878.64
2018-01-28T07:42:23.480Z,102880.38
2018-01-28T07:44:49.771Z,102879.59
2018-01-28T07:47:15.986Z,102883.22
2018-01-28T07:49:42.201Z,102874.06
2018-01-28T07:52:08.478Z,102890.75
2018-01-28T07:54:34.770Z,102887.00
2018-01-28T07:57:01.027Z,102903.65
2018-01-28T07:59:27.280Z,102904.17
2018-01-28T08:01:53.592Z,102905.05
2018-01-28T08:04:19.805Z,102911.64
2018-01-28T08:06:46.988Z,102912.98
2018-01-28T08:09:13.270Z,102918.38
2018-01-28T08:11:49.609Z,102913.67
2018-01-28T08:14:16.831Z,102915.94
2018-01-28T08:16:43.065Z,102911.13
2018-01-28T08:19:09.355Z,102918.05
2018-01-28T08:21:35.617Z,102923.75
2018-01-28T08:24:01.887Z,102918.10
2018-01-28T08:26:28.170Z,102928.66
2018-01-28T08:29:01.366Z,102927.03
2018-01-28T08:31:27.540Z,102926.20
2018-01-28T08:33:53.791Z,102924.14
2018-01-28T08:36:20.090Z,102928.25
2018-01-28T08:38:46.366Z,102931.76
2018-01-28T08:41:12.604Z,102935.27
2018-01-28T08:43:38.843Z,102943.57
2018-01-28T08:46:05.060Z,102938.83
2018-01-28T08:48:32.209Z,102941.11
2018-01-28T08:50:58.489Z,102940.73
2018-01-28T08:53:24.672Z,102945.99
2018-01-28T08:55:50.912Z,102939.42
2018-01-28T08:58:17.134Z,102939.06
2018-01-28T09:00:43.322Z,102931.64
2018-01-28T09:03:09.588Z,102929.47
2018-01-28T09:05:35.835Z,102924.25
2018-01-28T09:08:02.052Z,102921.75
2018-01-28T09:10:28.310Z,102924.85
2018-01-28T09:12:54.940Z,102932.43
2018-01-28T09:15:21.267Z,102942.53
2018-01-28T09:17:47.459Z,102950.06
2018-01-28T09:20:13.658Z,102951.03
2018-01-28T09:22:39.949Z,102946.30
2018-01-28T09:25:06.321Z,102947.16
2018-01-28T09:27:32.510Z,102939.42
2018-01-28T09:29:58.843Z,102931.24
2018-01-28T09:32:25.033Z,102934.78
2018-01-28T09:34:51.283Z,102933.08
2018-01-28T09:37:17.479Z,102940.19
2018-01-28T09:39:43.682Z,102950.46
2018-01-28T09:42:10.123Z,102944.10
2018-01-28T09:44:36.550Z,102951.30
2018-01-28T09:47:02.789Z,102959.79
2018-01-28T09:49:29.114Z,102956.76
2018-01-28T09:51:55.368Z,102973.13
2018-01-28T09:54:21.613Z,102969.31
2018-01-28T09:56:47.862Z,102969.30
2018-01-28T09:59:14.075Z,102970.83
2018-01-28T10:01:40.273Z,102976.27
2018-01-28T10:04:06.507Z,102984.26
2018-01-28T10:06:32.791Z,102987.59
2018-01-28T10:08:58.975Z,102996.89
2018-01-28T10:11:25.214Z,102993.52
2018-01-28T10:13:51.449Z,103003.28
2018-01-28T10:16:17.702Z,103011.70
2018-01-28T10:18:43.986Z,103012.67
2018-01-28T10:21:10.241Z,103022.81
2018-01-28T10:23:36.476Z,103036.36
2018-01-28T10:26:02.766Z,103021.12
2018-01-28T10:28:28.994Z,103021.97
2018-01-28T10:30:55.210Z,103008.91
2018-01-28T10:33:21.524Z,103010.27
2018-01-28T10:35:47.778Z,103008.27
2018-01-28T10:38:14.044Z,103013.00
2018-01-28T10:40:40.228Z,103017.34
2018-01-28T10:43:06.559Z,103025.31
2018-01-28T10:45:32.917Z,103036.67
2018-01-28T10:47:59.604Z,103044.01
2018-01-28T10:50:26.025Z,103039.98
2018-01-28T10:52:52.183Z,103047.48
2018-01-28T10:55:18.431Z,103043.33
2018-01-28T10:57:44.570Z,103042.86
2018-01-28T11:00:10.710Z,103045.44
2018-01-28T11:02:36.910Z,103043.13
2018-01-28T11:05:03.108Z,103047.08
2018-01-28T11:07:29.351Z,103052.81
2018-01-28T11:09:55.546Z,103044.02
2018-01-28T11:12:21.752Z,103047.16
2018-01-28T11:14:47.897Z,103043.20
2018-01-28T11:17:14.039Z,103030.87
2018-01-28T11:19:40.301Z,103036.63
2018-01-28T11:22:06.461Z,103036.47
2018-01-28T11:24:32.562Z,103042.12
2018-01-28T11:26:58.720Z,103040.75
2018-01-28T11:29:24.841Z,103038.53
2018-01-28T11:31:50.978Z,103028.86
2018-01-28T11:34:17.088Z,103035.45
2018-01-28T11:36:50.156Z,103036.28
2018-01-28T11:39:16.292Z,103034.58
2018-01-28T11:41:42.508Z,103034.27
2018-01-28T11:44:08.633Z,103031.75
2018-01-28T11:46:34.804Z,103020.27
2018-01-28T11:49:00.993Z,103033.50
2018-01-28T11:51:27.123Z,103038.35
2018-01-28T11:53:53.565Z,103030.83
2018-01-28T11:56:20.029Z,103032.57
2018-01-28T11:58:46.181Z,103030.80
2018-01-28T12:01:12.334Z,103029.86
2018-01-28T12:03:38.490Z,103035.48
2018-01-28T12:06:04.752Z,103023.14
2018-01-28T12:08:30.886Z,103028.45
2018-01-28T12:10:57.000Z,103018.88
2018-01-28T12:13:23.167Z,103011.45
2018-01-28T12:15:49.335Z,103012.95
2018-01-28T12:18:15.482Z,103013.86
2018-01-28T12:20:41.628Z,103002.41
2018-01-28T12:23:07.803Z,103008.45
2018-01-28T12:25:33.959Z,103005.06
2018-01-28T12:28:00.104Z,103003.83
2018-01-28T12:30:26.229Z,102998.33
2018-01-28T12:32:52.370Z,102991.38
2018-01-28T12:35:19.233Z,102984.02
2018-01-28T12:37:45.385Z,102979.17
2018-01-28T12:40:11.617Z,102977.14
2018-01-28T12:42:44.944Z,102980.69
2018-01-28T12:45:11.073Z,102981.58
2018-01-28T12:47:37.242Z,102984.92
2018-01-28T12:50:03.426Z,102988.33
2018-01-28T12:52:29.674Z,102990.49
2018-01-28T12:54:55.828Z,102995.81
2018-01-28T12:57:22.731Z,103001.83
2018-01-28T12:59:48.915Z,103002.17
2018-01-28T13:02:15.055Z,103003.52
2018-01-28T13:04:41.148Z,102990.77
2018-01-28T13:07:07.311Z,102993.88
2018-01-28T13:09:33.470Z,102984.62
2018-01-28T13:11:59.640Z,102977.98
2018-01-28T13:14:25.767Z,102973.95
2018-01-28T13:16:51.970Z,102970.13
2018-01-28T13:19:18.068Z,102967.91
2018-01-28T13:21:44.246Z,102967.48
2018-01-28T13:24:10.392Z,102964.38
2018-01-28T13:26:36.541Z,102962.27
2018-01-28T13:29:02.726Z,102960.55
2018-01-28T13:31:28.917Z,102960.46
2018-01-28T13:33:55.038Z,102958.72
2018-01-28T13:36:21.261Z,102959.16
2018-01-28T13:38:47.380Z,102956.13
2018-01-28T13:41:13.671Z,102958.67
2018-01-28T13:43:39.823Z,102951.63
2018-01-28T13:46:06.029Z,102938.92
2018-01-28T13:48:32.227Z,102952.27
2018-01-28T13:50:58.362Z,102944.62
2018-01-28T13:53:24.587Z,102958.63
2018-01-28T13:55:50.809Z,102949.38
2018-01-28T13:58:16.944Z,102955.93
2018-01-28T14:00:43.096Z,102948.81
2018-01-28T14:03:09.347Z,102952.27
2018-01-28T14:05:35.535Z,102953.10
2018-01-28T14:08:01.704Z,102953.48
2018-01-28T14:10:27.885Z,102947.34
2018-01-28T14:12:54.091Z,102956.54
2018-01-28T14:15:20.281Z,102953.48
2018-01-28T14:17:46.443Z,102949.09
2018-01-28T14:20:12.612Z,102961.33
2018-01-28T14:22:38.888Z,102956.44
2018-01-28T14:25:05.057Z,102952.94
2018-01-28T14:27:31.290Z,102951.13
2018-01-28T14:29:57.415Z,102952.92
2018-01-28T14:32:23.520Z,102958.50
2018-01-28T14:34:49.656Z,102959.38
2018-01-28T14:37:15.805Z,102956.32
2018-01-28T14:39:41.958Z,102959.45
2018-01-28T14:42:08.150Z,102954.56
2018-01-28T14:44:34.281Z,102947.09
2018-01-28T14:47:00.446Z,102945.75
2018-01-28T14:49:26.656Z,102947.50
2018-01-28T14:51:52.796Z,102938.70
2018-01-28T14:54:18.951Z,102932.20
2018-01-28T14:56:45.255Z,102927.84
2018-01-28T14:59:11.346Z,102931.81
2018-01-28T15:01:37.513Z,102927.44
2018-01-28T15:04:03.697Z,102938.91
2018-01-28T15:06:29.919Z,102941.92
2018-01-28T15:08:56.082Z,102933.66
2018-01-28T15:11:22.213Z,102934.09
2018-01-28T15:13:48.380Z,102941.56
2018-01-28T15:16:14.614Z,102939.33
2018-01-28T15:18:40.821Z,102941.13
2018-01-28T15:21:06.943Z,102943.28
2018-01-28T15:23:34.570Z,102949.48
2018-01-28T15:26:00.667Z,102947.66
2018-01-28T15:28:26.843Z,102953.84
2018-01-28T15:30:52.979Z,102955.59
2018-01-28T15:33:19.103Z,102959.51
2018-01-28T15:35:45.967Z,102950.28
2018-01-28T15:38:12.160Z,102958.63
2018-01-28T15:40:38.271Z,102952.91
2018-01-28T15:43:04.472Z,102945.90
2018-01-28T15:45:30.680Z,102949.41
2018-01-28T15:47:56.891Z,102939.73
2018-01-28T15:50:23.045Z,102946.30
2018-01-28T15:52:49.328Z,102935.74
2018-01-28T15:55:15.509Z,102934.25
2018-01-28T15:57:41.899Z,102935.58
2018-01-28T16:00:08.755Z,102933.34
2018-01-28T16:02:34.878Z,102920.67
2018-01-28T16:05:01.011Z,102927.61
2018-01-28T16:07:27.248Z,102922.27
2018-01-28T16:09:53.387Z,102920.07
2018-01-28T16:12:19.581Z,102925.87
2018-01-28T16:14:45.713Z,102926.23
2018-01-28T16:17:13.601Z,102924.60
2018-01-28T16:19:39.973Z,102924.75
2018-01-28T16:22:06.201Z,102933.05
2018-01-28T16:24:32.476Z,102932.65
2018-01-28T16:26:58.977Z,102931.70
2018-01-28T16:29:26.215Z,102929.40
2018-01-28T16:31:52.458Z,102935.11
2018-01-28T16:34:18.763Z,102941.75
2018-01-28T16:36:45.914Z,102947.93
2018-01-28T16:39:12.160Z,102968.14
2018-01-28T16:41:38.756Z,102983.09
2018-01-28T16:44:05.051Z,102973.59
2018-01-28T16:46:31.266Z,102991.56
2018-01-28T16:48:58.735Z,102992.42
2018-01-28T16:51:25.089Z,102991.54
2018-01-28T16:53:51.556Z,102998.00
2018-01-28T16:56:17.968Z,103001.91
2018-01-28T16:58:44.347Z,102998.97
2018-01-28T17:01:10.532Z,102992.84
2018-01-28T17:03:36.714Z,102994.25
2018-01-28T17:06:03.008Z,102993.28
2018-01-28T17:08:29.265Z,102982.34
2018-01-28T17:10:55.479Z,102978.02
2018-01-28T17:13:23.794Z,102985.89
2018-01-28T17:15:50.307Z,102975.73
2018-01-28T17:18:16.510Z,102980.11
2018-01-28T17:20:42.874Z,102974.00
2018-01-28T17:23:09.186Z,102979.73
2018-01-28T17:25:37.500Z,102983.30
2018-01-28T17:28:03.727Z,102981.95
2018-01-28T17:30:29.974Z,102983.71
2018-01-28T17:32:56.181Z,102979.37
2018-01-28T17:35:28.419Z,102969.83
2018-01-28T17:37:54.712Z,102959.88
2018-01-28T17:40:20.989Z,102959.04
2018-01-28T17:42:47.366Z,102958.13
2018-01-28T17:45:13.694Z,102959.87
2018-01-28T17:47:48.818Z,102970.14
2018-01-28T17:50:22.688Z,102958.64
2018-01-28T17:52:56.229Z,102952.95
2018-01-28T17:55:31.231Z,102956.97
2018-01-28T17:58:06.185Z,102953.40
2018-01-28T18:00:34.144Z,102942.37
2018-01-28T18:03:00.410Z,102950.73
2018-01-28T18:05:26.745Z,102943.30
2018-01-28T18:07:53.044Z,102937.52
2018-01-28T18:10:19.325Z,102937.06
2018-01-28T18:12:45.618Z,102940.61
2018-01-28T18:15:11.790Z,102937.06
2018-01-28T18:17:37.975Z,102938.84
2018-01-28T18:20:04.230Z,102938.38
2018-01-28T18:22:30.598Z,102928.19
2018-01-28T18:24:56.799Z,102938.27
2018-01-28T18:27:23.077Z,102943.41
2018-01-28T18:29:49.321Z,102948.48
2018-01-28T18:32:15.629Z,102944.41
2018-01-28T18:34:41.840Z,102952.02
2018-01-28T18:37:08.037Z,102954.23
2018-01-28T18:39:34.415Z,102959.92
2018-01-28T18:42:00.765Z,102961.20
2018-01-28T18:44:27.002Z,102963.94
2018-01-28T18:46:53.253Z,102969.22
2018-01-28T18:49:19.499Z,102972.02
2018-01-28T18:51:45.831Z,102974.66
2018-01-28T18:54:12.034Z,102971.25
2018-01-28T18:56:38.305Z,102978.60
2018-01-28T18:59:04.609Z,102975.56
2018-01-28T19:01:30.815Z,102976.95
2018-01-28T19:03:57.079Z,102968.20
2018-01-28T19:06:23.279Z,102970.91
2018-01-28T19:08:50.335Z,102971.81
2018-01-28T19:11:16.569Z,102972.24
2018-01-28T19:13:42.838Z,102975.75
2018-01-28T19:16:09.078Z,102970.02
2018-01-28T19:18:35.339Z,102976.98
2018-01-28T19:21:01.567Z,102977.89
2018-01-28T19:23:27.775Z,102976.63
2018-01-28T19:25:54.264Z,102980.56
2018-01-28T19:28:20.529Z,102975.26
2018-01-28T19:30:46.738Z,102973.47
2018-01-28T19:33:13.051Z,102978.77
2018-01-28T19:35:39.341Z,102971.89
2018-01-28T19:38:05.574Z,102971.89
2018-01-28T19:40:31.900Z,102971.64
2018-01-28T19:42:58.245Z,102977.85
2018-01-28T19:45:24.632Z,102978.30
2018-01-28T19:47:50.863Z,102975.61
2018-01-28T19:50:17.166Z,102973.92
2018-01-28T19:52:43.400Z,102980.02
2018-01-28T19:55:09.713Z,102977.73
2018-01-28T19:57:35.975Z,102972.05
2018-01-28T20:00:02.321Z,102979.16
2018-01-28T20:02:28.593Z,102978.72
2018-01-28T20:04:54.822Z,102986.11
2018-01-28T20:07:21.892Z,102984.75
2018-01-28T20:09:48.178Z,102986.91
2018-01-28T20:12:14.477Z,102987.34
2018-01-28T20:14:40.777Z,102989.10
2018-01-28T20:17:06.970Z,102983.39
2018-01-28T20:19:33.211Z,102983.38
2018-01-28T20:21:59.473Z,102982.91
2018-01-28T20:24:25.731Z,102981.63
2018-01-28T20:26:51.898Z,102980.34
2018-01-28T20:29:18.233Z,102977.62
2018-01-28T20:31:44.565Z,102966.72
2018-01-28T20:34:10.787Z,102966.67
2018-01-28T20:36:36.983Z,102964.39
2018-01-28T20:39:03.266Z,102963.09
2018-01-28T20:41:29.522Z,102966.59
2018-01-28T20:43:55.734Z,102972.37
2018-01-28T20:46:21.938Z,102973.76
2018-01-28T20:48:48.154Z,102972.11
2018-01-28T20:51:14.486Z,102971.27
2018-01-28T20:53:40.682Z,102968.62
2018-01-28T20:56:06.984Z,102963.39
2018-01-28T20:58:33.219Z,102959.48
2018-01-28T21:00:59.411Z,102958.66
2018-01-28T21:03:25.601Z,102967.08
2018-01-28T21:05:51.816Z,102965.80
2018-01-28T21:08:17.979Z,102968.03
2018-01-28T21:10:44.139Z,102959.69
2018-01-28T21:13:10.457Z,102962.32
2018-01-28T21:15:36.634Z,102946.16
2018-01-28T21:18:02.855Z,102941.03
2018-01-28T21:20:29.076Z,102946.74
2018-01-28T21:22:55.291Z,102933.19
2018-01-28T21:25:21.567Z,102935.73
2018-01-28T21:27:47.849Z,102936.17
2018-01-28T21:30:14.101Z,102919.04
2018-01-28T21:32:40.447Z,102924.33
2018-01-28T21:35:06.657Z,102919.09
2018-01-28T21:37:32.813Z,102915.97
2018-01-28T21:39:59.108Z,102912.89
2018-01-28T21:42:25.415Z,102916.84
2018-01-28T21:44:51.582Z,102916.84
2018-01-28T21:47:17.816Z,102926.42
2018-01-28T21:49:44.045Z,102922.06
2018-01-28T21:52:10.195Z,102925.16
2018-01-28T21:54:36.536Z,102913.75
2018-01-28T21:57:02.779Z,102924.30
2018-01-28T21:59:29.029Z,102920.30
2018-01-28T22:01:55.270Z,102914.14
2018-01-28T22:04:21.494Z,102919.50
2018-01-28T22:06:47.664Z,102921.66
2018-01-28T22:09:34.787Z,102917.37
2018-01-28T22:12:01.018Z,102922.63
2018-01-28T22:14:27.169Z,102919.11
2018-01-28T22:16:53.380Z,102919.66
2018-01-28T22:19:19.538Z,102923.20
2018-01-28T22:21:45.715Z,102925.91
2018-01-28T22:26:44.781Z,102919.41
2018-01-28T22:29:10.952Z,102913.28
2018-01-28T22:31:37.202Z,102913.38
2018-01-28T22:34:03.392Z,102905.47
2018-01-28T22:36:29.574Z,102904.63
2018-01-28T22:38:55.829Z,102902.86
2018-01-28T22:41:22.091Z,102901.12
2018-01-28T22:43:48.240Z,102897.62
2018-01-28T22:46:14.465Z,102893.71
2018-01-28T22:48:40.760Z,102894.16
2018-01-28T22:51:06.934Z,102897.18
2018-01-28T22:53:33.103Z,102899.84
2018-01-28T22:55:59.321Z,102902.06
2018-01-28T22:58:25.528Z,102899.36
2018-01-28T23:00:51.734Z,102890.57
2018-01-28T23:03:18.088Z,102892.31
2018-01-28T23:05:44.350Z,102893.16
2018-01-28T23:08:10.534Z,102889.70
2018-01-28T23:10:36.714Z,102886.73
2018-01-28T23:13:03.014Z,102894.20
2018-01-28T23:15:29.186Z,102888.93
2018-01-28T23:17:55.411Z,102885.80
2018-01-28T23:20:21.713Z,102894.13
2018-01-28T23:22:47.909Z,102882.80
2018-01-28T23:25:14.129Z,102888.55
2018-01-28T23:27:40.398Z,102883.22
2018-01-28T23:30:06.519Z,102879.62
2018-01-28T23:32:32.662Z,102884.47
2018-01-28T23:34:58.819Z,102887.08
2018-01-28T23:37:25.052Z,102884.48
2018-01-28T23:39:51.274Z,102879.27
2018-01-28T23:42:17.514Z,102883.25
2018-01-28T23:44:43.676Z,102889.00
2018-01-28T23:47:09.920Z,102882.88
2018-01-28T23:49:36.168Z,102882.03
2018-01-28T23:52:02.489Z,102881.63
2018-01-28T23:54:28.809Z,102875.47
2018-01-28T23:56:55.111Z,102875.02
2018-01-28T23:59:21.388Z,102870.63
